Time;durP1;ratioP1;P1;durP2;ratioP2;P2;SDS_P1;SDS_P2;PMS_P1;PMS_P2;Temp;Humidity;BMP_temperature;BMP_pressure;BME280_temperature;BME280_humidity;BME280_pressure;Samples;Min_cycle;Max_cycle;Signal;HPM_P1;HPM_P2
2022/08/23 00:01:37;;;;;;;16.38;10.00;;;14.30;99.90;;;;;;5055766;28;20045;-26
2022/08/23 00:04:14;;;;;;;;;;;14.30;99.90;;;;;;5053909;28;20049;-26
2022/08/23 00:06:41;;;;;;;19.42;13.90;;;14.10;99.90;;;;;;5055421;28;19920;-26
2022/08/23 00:09:08;;;;;;;17.70;13.70;;;14.00;99.90;;;;;;5054407;28;20052;-27
2022/08/23 00:11:37;;;;;;;17.17;12.93;;;14.00;99.90;;;;;;5054457;28;20071;-26
2022/08/23 00:14:14;;;;;;;21.70;8.60;;;14.10;99.90;;;;;;5054552;28;20051;-26
2022/08/23 00:16:40;;;;;;;10.82;6.78;;;13.90;99.90;;;;;;5056086;28;20056;-27
2022/08/23 00:19:09;;;;;;;11.25;8.05;;;13.70;99.90;;;;;;5055911;28;20106;-27
2022/08/23 00:21:37;;;;;;;29.42;15.48;;;13.80;99.90;;;;;;5054447;28;20048;-26
2022/08/23 00:24:10;;;;;;;22.58;17.45;;;13.70;99.90;;;;;;5054269;28;20194;-26
2022/08/23 00:26:55;;;;;;;19.17;14.80;;;13.60;99.90;;;;;;5054080;28;20522;-26
2022/08/23 00:29:24;;;;;;;13.38;10.55;;;13.70;99.90;;;;;;5054425;28;20360;-26
2022/08/23 00:31:50;;;;;;;636.55;39.25;;;13.60;99.90;;;;;;5055422;28;20532;-26
2022/08/23 00:34:16;;;;;;;299.83;16.65;;;13.50;99.90;;;;;;5054741;28;20132;-26
2022/08/23 00:36:43;;;;;;;964.60;38.13;;;13.50;99.90;;;;;;5053584;28;20131;-26
2022/08/23 00:39:10;;;;;;;568.85;30.45;;;13.50;99.90;;;;;;5055249;28;20048;-26
2022/08/23 00:41:36;;;;;;;11.93;7.65;;;13.40;99.90;;;;;;5055048;28;20120;-26
2022/08/23 00:47:53;;;;;;;8.02;5.47;;;13.50;1.00;;;;;;5052935;28;20049;-26
2022/08/23 00:49:59;;;;;;;15.02;10.02;;;13.50;1.00;;;;;;5049729;28;20053;-26
2022/08/23 00:52:36;;;;;;;14.55;10.82;;;13.30;1.00;;;;;;5054444;28;20048;-26
2022/08/23 00:55:02;;;;;;;15.75;10.73;;;13.50;1.00;;;;;;5054755;28;20049;-26
2022/08/23 00:57:28;;;;;;;19.00;11.30;;;13.40;1.00;;;;;;5053551;28;20045;-26
2022/08/23 00:59:54;;;;;;;10.70;8.23;;;13.50;1.00;;;;;;5053584;28;20410;-26
2022/08/23 01:02:20;;;;;;;8.40;6.63;;;13.40;1.00;;;;;;5054116;28;20048;-28
2022/08/23 01:04:59;;;;;;;5.22;4.47;;;13.50;1.00;;;;;;5035428;28;20036;-26
2022/08/23 01:07:45;;;;;;;10.15;7.00;;;13.30;1.00;;;;;;5053113;28;20528;-26
2022/08/23 01:10:35;;;;;;;10.02;8.15;;;13.30;1.00;;;;;;5055322;28;20436;-26
2022/08/23 01:13:35;;;;;;;13.43;10.73;;;13.50;1.00;;;;;;5053180;28;20057;-26
2022/08/23 01:16:08;;;;;;;12.43;9.75;;;13.60;1.00;;;;;;5033181;28;20061;-26
2022/08/23 01:18:35;;;;;;;10.13;6.72;;;13.60;1.00;;;;;;5054374;28;20041;-26
2022/08/23 01:21:25;;;;;;;8.27;6.63;;;13.60;1.00;;;;;;5054345;28;20112;-26
2022/08/23 01:23:59;;;;;;;9.50;6.78;;;13.50;1.00;;;;;;5053450;28;20045;-26
2022/08/23 01:26:26;;;;;;;9.25;5.75;;;13.50;1.00;;;;;;5054794;28;20044;-26
2022/08/23 01:28:53;;;;;;;11.02;7.03;;;13.60;1.00;;;;;;5054692;28;20053;-26
2022/08/23 01:31:21;;;;;;;14.52;9.20;;;13.60;1.00;;;;;;5052965;28;20041;-26
2022/08/23 01:33:54;;;;;;;10.95;9.25;;;13.60;1.00;;;;;;5053653;28;20514;-26
2022/08/23 01:36:27;;;;;;;10.20;8.25;;;13.80;1.00;;;;;;5053188;28;20128;-26
2022/08/23 01:38:52;;;;;;;;;;;13.60;1.00;;;;;;5054064;28;20095;-26
2022/08/23 01:41:18;;;;;;;9.02;7.55;;;13.80;15.10;;;;;;5052650;28;19971;-26
2022/08/23 01:43:45;;;;;;;16.67;8.68;;;13.70;1.00;;;;;;5053925;28;20051;-26
2022/08/23 01:46:21;;;;;;;14.65;9.57;;;13.60;1.00;;;;;;5054431;28;20053;-26
2022/08/23 01:48:48;;;;;;;10.10;5.47;;;13.70;1.00;;;;;;5053000;28;20053;-26
2022/08/23 01:51:17;;;;;;;10.77;6.05;;;13.50;1.00;;;;;;5053792;28;20052;-26
2022/08/23 01:53:43;;;;;;;5.75;4.80;;;13.30;1.00;;;;;;5053470;28;20080;-26
2022/08/23 01:56:09;;;;;;;18.35;5.20;;;13.20;1.00;;;;;;5053758;28;20079;-26
2022/08/23 01:58:35;;;;;;;24.48;5.53;;;12.90;99.90;;;;;;5050388;28;20049;-27
2022/08/23 02:01:03;;;;;;;4.30;3.90;;;12.80;99.90;;;;;;5051293;28;20507;-26
2022/08/23 02:03:30;;;;;;;4.95;3.90;;;12.70;99.90;;;;;;5054189;28;20060;-26
2022/08/23 02:06:01;;;;;;;4.45;3.75;;;12.70;1.00;;;;;;5053316;28;20491;-26
2022/08/23 02:11:14;;;;;;;11.52;8.50;;;12.70;1.00;;;;;;5052173;28;20041;-26
2022/08/23 02:13:41;;;;;;;14.73;10.45;;;12.70;1.00;;;;;;5053504;28;20045;-26
2022/08/23 02:16:07;;;;;;;12.10;8.93;;;12.80;1.00;;;;;;5053539;28;20060;-26
2022/08/23 02:18:38;;;;;;;7.00;5.43;;;13.00;1.00;;;;;;5051255;28;20041;-26
2022/08/23 02:21:04;;;;;;;6.57;5.20;;;12.90;1.00;;;;;;5053724;28;20041;-26
2022/08/23 02:23:30;;;;;;;8.75;4.95;;;12.90;1.00;;;;;;5053728;28;20052;-26
2022/08/23 02:25:56;;;;;;;16.83;9.85;;;12.70;1.00;;;;;;5054006;28;20041;-26
2022/08/23 02:28:23;;;;;;;9.63;6.95;;;12.70;1.00;;;;;;5052441;28;20131;-26
2022/08/23 02:30:50;;;;;;;3.67;1.70;;;12.70;1.00;;;;;;5051979;28;20056;-25
2022/08/23 02:33:16;;;;;;;6.60;4.38;;;12.70;1.00;;;;;;5055918;28;20040;-26
2022/08/23 02:35:42;;;;;;;13.13;8.55;;;12.70;1.00;;;;;;5057671;28;20080;-26
2022/08/23 02:38:10;;;;;;;15.75;10.65;;;12.80;1.00;;;;;;5057537;28;20123;-26
2022/08/23 02:40:42;;;;;;;15.20;9.88;;;12.70;1.00;;;;;;5055445;28;20048;-26
2022/08/23 02:43:09;;;;;;;11.97;8.67;;;13.00;33.70;;;;;;5057880;28;20045;-26
2022/08/23 02:45:38;;;;;;;19.17;11.02;;;13.00;80.20;;;;;;5057219;28;20633;-26
2022/08/23 02:48:04;;;;;;;15.75;10.05;;;13.20;90.20;;;;;;5057162;28;20047;-26
2022/08/23 02:50:30;;;;;;;12.10;7.75;;;13.20;87.10;;;;;;5054846;28;20041;-26
2022/08/23 02:53:02;;;;;;;13.15;7.82;;;13.20;67.10;;;;;;5057884;28;20099;-26
2022/08/23 02:55:28;;;;;;;7.70;4.10;;;13.20;54.80;;;;;;5057915;28;20048;-26
2022/08/23 02:57:54;;;;;;;8.60;6.45;;;13.00;25.70;;;;;;5057004;28;20550;-26
2022/08/23 03:00:23;;;;;;;7.13;6.07;;;12.80;1.00;;;;;;5056317;28;20510;-26
2022/08/23 03:02:50;;;;;;;6.63;4.68;;;12.90;5.60;;;;;;5057172;28;20052;-26
2022/08/23 03:05:16;;;;;;;9.38;7.45;;;12.80;31.70;;;;;;5056860;28;20048;-26
2022/08/23 03:07:43;;;;;;;3.80;3.30;;;12.70;31.40;;;;;;5056364;28;20049;-25
2022/08/23 03:10:16;;;;;;;4.38;3.83;;;12.80;38.40;;;;;;5055205;28;20534;-28
2022/08/23 03:12:42;;;;;;;4.00;3.70;;;12.50;15.30;;;;;;5056137;28;20436;-26
2022/08/23 03:15:08;;;;;;;4.85;4.45;;;12.50;1.00;;;;;;5056689;28;20102;-26
2022/08/23 03:17:34;;;;;;;3.70;3.30;;;12.30;1.00;;;;;;5055471;28;20148;-26
2022/08/23 03:20:00;;;;;;;4.97;4.25;;;12.20;2.70;;;;;;5057323;28;20526;-25
2022/08/23 03:22:26;;;;;;;6.95;6.00;;;12.30;10.20;;;;;;5055686;28;20398;-25
2022/08/23 03:24:51;;;;;;;5.75;5.10;;;12.20;30.00;;;;;;5056500;28;20441;-25
2022/08/23 03:27:17;;;;;;;10.27;6.22;;;12.20;64.20;;;;;;5055506;28;20041;-26
2022/08/23 03:29:43;;;;;;;8.13;6.13;;;12.10;94.50;;;;;;5056403;28;20045;-26
2022/08/23 03:32:13;;;;;;;10.63;7.75;;;12.10;99.90;;;;;;5055347;28;20053;-26
2022/08/23 03:34:39;;;;;;;16.63;11.00;;;12.30;99.90;;;;;;5056358;28;20132;-26
2022/08/23 03:37:05;;;;;;;12.15;9.40;;;12.60;99.90;;;;;;5056608;28;20124;-26
2022/08/23 03:39:31;;;;;;;17.15;12.55;;;12.70;99.90;;;;;;5056168;28;20124;-25
2022/08/23 03:41:57;;;;;;;20.60;13.93;;;12.80;99.90;;;;;;5054432;28;20124;-27
2022/08/23 03:44:22;;;;;;;34.15;19.65;;;12.70;99.90;;;;;;5055021;28;20087;-26
2022/08/23 03:46:49;;;;;;;21.58;16.25;;;12.90;99.90;;;;;;5056113;28;20483;-26
2022/08/23 03:49:15;;;;;;;28.20;17.08;;;13.00;99.90;;;;;;5056078;28;20049;-25
2022/08/23 03:51:41;;;;;;;32.55;22.15;;;13.10;99.90;;;;;;5055980;28;20049;-25
2022/08/23 03:54:06;;;;;;;29.80;19.73;;;13.30;99.90;;;;;;5055201;28;20048;-26
2022/08/23 03:56:38;;;;;;;28.23;17.33;;;13.30;99.90;;;;;;5056449;28;20467;-25
2022/08/23 03:59:08;;;;;;;25.02;15.82;;;13.30;99.90;;;;;;5056183;28;20052;-26
2022/08/23 04:01:34;;;;;;;15.93;12.13;;;13.10;99.90;;;;;;5054671;28;20049;-26
2022/08/23 04:03:59;;;;;;;21.73;13.73;;;13.10;99.90;;;;;;5055230;28;20044;-26
2022/08/23 04:06:27;;;;;;;16.65;12.80;;;13.10;99.90;;;;;;5054141;28;20395;-26
2022/08/23 04:08:53;;;;;;;13.65;9.85;;;12.90;99.70;;;;;;5054695;28;20041;-26
2022/08/23 04:11:24;;;;;;;19.65;10.05;;;13.00;99.40;;;;;;5055628;28;20132;-26
2022/08/23 04:13:55;;;;;;;8.90;6.18;;;12.90;97.30;;;;;;5053430;28;20048;-26
2022/08/23 04:16:21;;;;;;;7.88;5.20;;;12.60;90.80;;;;;;5053455;28;20580;-26
2022/08/23 04:18:47;;;;;;;3.50;3.20;;;12.50;68.10;;;;;;5055503;28;20044;-26
2022/08/23 04:21:20;;;;;;;4.53;3.78;;;12.30;9.30;;;;;;5055398;28;20037;-26
2022/08/23 04:23:46;;;;;;;5.10;2.70;;;12.20;1.00;;;;;;5055482;28;20049;-26
2022/08/23 04:26:12;;;;;;;6.15;4.68;;;12.00;1.00;;;;;;5054374;28;20048;-26
2022/08/23 04:28:40;;;;;;;4.55;4.15;;;12.00;1.00;;;;;;5054975;28;20099;-25
2022/08/23 04:31:06;;;;;;;4.40;2.70;;;11.70;1.00;;;;;;5054920;28;20407;-25
2022/08/23 04:33:33;;;;;;;4.03;2.63;;;11.60;2.30;;;;;;5054049;28;20041;-25
2022/08/23 04:36:03;;;;;;;5.15;3.42;;;11.60;44.20;;;;;;5053188;28;20056;-26
2022/08/23 04:38:29;;;;;;;4.15;3.08;;;11.60;82.20;;;;;;5053860;28;20045;-25
2022/08/23 04:43:41;;;;;;;7.18;4.68;;;11.60;99.90;;;;;;5054010;28;20064;-25
2022/08/23 04:46:07;;;;;;;8.95;7.82;;;11.60;99.90;;;;;;5054214;28;20045;-26
2022/08/23 04:48:34;;;;;;;10.98;8.65;;;11.90;99.90;;;;;;5055208;28;20501;-26
2022/08/23 04:51:00;;;;;;;14.73;13.13;;;12.00;99.90;;;;;;5053897;28;20064;-25
2022/08/23 04:53:28;;;;;;;16.70;12.02;;;12.20;99.90;;;;;;5054847;28;20406;-26
2022/08/23 04:55:54;;;;;;;11.70;9.07;;;12.50;99.90;;;;;;5051574;28;20135;-26
2022/08/23 04:58:20;;;;;;;14.88;11.25;;;12.50;99.90;;;;;;5053319;28;20052;-25
2022/08/23 05:00:52;;;;;;;10.40;8.60;;;12.60;99.90;;;;;;5053989;28;20048;-26
2022/08/23 05:03:17;;;;;;;12.82;10.35;;;12.50;99.90;;;;;;5054648;28;20049;-25
2022/08/23 05:05:43;;;;;;;14.80;11.02;;;12.50;99.90;;;;;;5054603;28;20049;-26
2022/08/23 05:08:14;;;;;;;19.10;15.43;;;12.60;99.90;;;;;;5053783;28;20060;-26
2022/08/23 05:10:39;;;;;;;30.88;20.38;;;12.90;99.90;;;;;;5055088;28;20053;-25
2022/08/23 05:13:05;;;;;;;25.02;19.90;;;13.00;99.90;;;;;;5055280;28;20049;-26
2022/08/23 05:15:31;;;;;;;35.47;23.55;;;13.30;99.90;;;;;;5054439;28;20095;-25
2022/08/23 05:17:57;;;;;;;41.97;27.02;;;13.40;99.90;;;;;;5052090;28;20041;-25
2022/08/23 05:20:22;;;;;;;42.75;30.17;;;13.70;99.90;;;;;;5053905;28;20430;-25
2022/08/23 05:22:49;;;;;;;47.58;31.73;;;14.00;99.90;;;;;;5054289;28;20130;-25
2022/08/23 05:25:14;;;;;;;48.88;33.97;;;14.10;99.90;;;;;;5054248;28;20414;-25
2022/08/23 05:27:45;;;;;;;51.55;36.05;;;14.20;99.90;;;;;;5051896;28;20160;-26
2022/08/23 05:30:11;;;;;;;52.67;38.38;;;14.40;99.90;;;;;;5053291;28;20037;-25
2022/08/23 05:32:37;;;;;;;58.38;37.90;;;14.60;99.90;;;;;;5054133;28;20095;-26
2022/08/23 05:35:04;;;;;;;47.97;35.15;;;14.70;99.90;;;;;;5054066;28;20457;-26
2022/08/23 05:37:30;;;;;;;48.83;34.13;;;14.90;99.90;;;;;;5054251;28;20055;-25
2022/08/23 05:39:55;;;;;;;48.63;34.78;;;15.10;99.90;;;;;;5052362;28;20116;-26
2022/08/23 05:42:21;;;;;;;41.05;31.58;;;15.20;99.90;;;;;;5053953;28;20060;-26
2022/08/23 05:44:47;;;;;;;46.78;31.58;;;15.50;99.90;;;;;;5052936;28;20041;-26
2022/08/23 05:47:16;;;;;;;47.95;33.72;;;15.30;99.90;;;;;;5054431;28;20426;-26
2022/08/23 05:49:43;;;;;;;41.92;30.92;;;15.40;99.90;;;;;;5052983;28;20052;-26
2022/08/23 05:52:12;;;;;;;39.38;30.27;;;15.70;99.90;;;;;;5053831;28;20388;-26
2022/08/23 05:54:38;;;;;;;36.45;29.88;;;15.60;99.90;;;;;;5053761;28;20053;-26
2022/08/23 05:57:04;;;;;;;33.97;25.17;;;15.90;99.90;;;;;;5053569;28;20435;-26
2022/08/23 05:59:29;;;;;;;35.92;24.45;;;15.80;99.90;;;;;;5052557;28;20072;-26
2022/08/23 06:01:56;;;;;;;31.13;24.25;;;16.00;99.90;;;;;;5053391;28;20048;-26
2022/08/23 06:04:22;;;;;;;25.60;22.83;;;15.90;99.90;;;;;;5053618;28;20372;-26
2022/08/23 06:06:57;;;;;;;32.42;23.17;;;16.20;99.90;;;;;;5053206;28;20098;-26
2022/08/23 06:09:23;;;;;;;29.60;23.17;;;16.10;99.90;;;;;;5053630;28;20049;-26
2022/08/23 06:11:49;;;;;;;26.15;20.63;;;16.30;99.90;;;;;;5051340;28;20045;-26
2022/08/23 06:14:15;;;;;;;28.00;21.30;;;16.20;99.90;;;;;;5053543;28;20045;-26
2022/08/23 06:16:46;;;;;;;28.27;20.27;;;16.40;99.90;;;;;;5054045;28;20048;-26
2022/08/23 06:19:13;;;;;;;23.92;21.45;;;16.30;99.90;;;;;;5052548;28;20041;-26
2022/08/23 06:21:39;;;;;;;22.52;19.70;;;16.50;99.90;;;;;;5052278;28;20129;-26
2022/08/23 06:24:06;;;;;;;24.30;19.75;;;16.60;99.90;;;;;;5053463;28;20094;-26
2022/08/23 06:26:35;;;;;;;20.83;17.70;;;16.70;99.90;;;;;;5053759;28;20060;-26
2022/08/23 06:29:07;;;;;;;21.13;18.45;;;16.80;99.90;;;;;;5053398;28;20041;-26
2022/08/23 06:31:51;;;;;;;20.95;17.92;;;16.90;99.90;;;;;;5052910;28;20059;-26
2022/08/23 06:34:31;;;;;;;24.67;16.90;;;16.90;99.90;;;;;;5053403;28;20044;-27
2022/08/23 06:36:59;;;;;;;18.52;16.67;;;17.20;99.90;;;;;;5053791;28;20132;-26
2022/08/23 06:39:29;;;;;;;19.55;16.67;;;17.30;99.90;;;;;;5052091;28;20049;-27
2022/08/23 06:42:11;;;;;;;24.73;16.67;;;17.30;37.80;;;;;;5052612;28;20124;-26
2022/08/23 06:44:37;;;;;;;21.73;16.80;;;17.40;1.00;;;;;;5052939;28;20060;-26
2022/08/23 06:47:04;;;;;;;17.50;15.70;;;17.40;1.00;;;;;;5049233;28;20544;-27
2022/08/23 06:49:30;;;;;;;19.17;14.48;;;17.60;99.90;;;;;;5049169;28;20044;-27
2022/08/23 06:52:03;;;;;;;21.75;14.15;;;17.70;99.90;;;;;;5040035;28;20388;-26
2022/08/23 06:54:31;;;;;;;18.00;14.38;;;17.80;99.90;;;;;;5040866;28;20150;-26
2022/08/23 06:56:58;;;;;;;15.85;13.57;;;17.80;99.90;;;;;;5051815;28;20056;-26
2022/08/23 06:59:24;;;;;;;19.58;14.07;;;18.00;44.20;;;;;;5051526;28;20045;-27
2022/08/23 07:02:06;;;;;;;16.08;13.70;;;18.20;1.00;;;;;;5052985;28;20564;-26
2022/08/23 07:04:36;;;;;;;16.85;11.95;;;18.20;1.00;;;;;;5053125;28;20045;-26
2022/08/23 07:07:03;;;;;;;13.77;11.02;;;18.40;99.90;;;;;;5052932;28;20120;-27
2022/08/23 07:09:30;;;;;;;12.63;10.98;;;18.60;99.90;;;;;;5051892;28;20063;-27
2022/08/23 07:11:56;;;;;;;13.45;10.38;;;18.70;8.30;;;;;;5053025;28;20079;-26
2022/08/23 07:14:26;;;;;;;12.38;10.30;;;18.80;1.00;;;;;;5051923;28;20044;-26
2022/08/23 07:16:55;;;;;;;12.45;10.57;;;18.90;1.00;;;;;;5052373;28;20106;-26
2022/08/23 07:19:26;;;;;;;13.65;10.68;;;19.10;1.00;;;;;;5053257;28;20103;-26
2022/08/23 07:21:52;;;;;;;15.05;9.43;;;19.20;99.90;;;;;;5054763;28;20119;-26
2022/08/23 07:24:19;;;;;;;13.40;10.02;;;19.30;99.90;;;;;;5056407;28;20049;-26
2022/08/23 07:26:50;;;;;;;11.85;9.95;;;19.40;99.90;;;;;;5056338;28;20106;-26
2022/08/23 07:29:18;;;;;;;9.95;8.90;;;19.60;99.90;;;;;;5056490;28;20045;-26
2022/08/23 07:31:47;;;;;;;15.32;8.77;;;19.70;99.90;;;;;;5055808;28;20105;-26
2022/08/23 07:34:17;;;;;;;10.18;8.63;;;19.80;99.90;;;;;;5056310;28;20048;-26
2022/08/23 07:36:44;;;;;;;11.73;8.27;;;19.90;1.00;;;;;;5056682;28;20056;-26
2022/08/23 07:39:11;;;;;;;12.13;8.50;;;20.10;1.00;;;;;;5056235;28;20394;-26
2022/08/23 07:41:38;;;;;;;11.35;7.25;;;20.20;1.00;;;;;;5054933;28;20071;-26
2022/08/23 07:44:07;;;;;;;12.32;7.55;;;20.30;99.90;;;;;;5055823;28;20446;-26
2022/08/23 07:46:38;;;;;;;10.82;7.47;;;20.40;99.90;;;;;;5054904;28;20067;-26
2022/08/23 07:49:04;;;;;;;11.15;7.80;;;20.60;99.90;;;;;;5053687;28;20041;-26
2022/08/23 07:51:36;;;;;;;9.55;6.32;;;20.70;99.90;;;;;;5055005;28;20059;-26
2022/08/23 07:54:05;;;;;;;9.65;6.90;;;20.80;99.90;;;;;;5056408;28;20088;-26
2022/08/23 07:56:31;;;;;;;10.82;6.88;;;20.90;99.90;;;;;;5054648;28;20067;-26
2022/08/23 07:58:57;;;;;;;8.77;6.75;;;21.10;99.90;;;;;;5056167;28;20049;-26
2022/08/23 08:01:26;;;;;;;8.85;5.90;;;21.20;99.90;;;;;;5055817;28;20395;-26
2022/08/23 08:03:53;;;;;;;12.80;6.40;;;21.40;96.10;;;;;;5055776;28;20041;-26
2022/08/23 08:06:23;;;;;;;12.05;6.53;;;21.50;8.20;;;;;;5054554;28;20076;-26
2022/08/23 08:08:49;;;;;;;7.40;6.00;;;21.70;1.00;;;;;;5054585;28;20056;-27
2022/08/23 08:11:20;;;;;;;9.68;6.10;;;21.90;1.00;;;;;;5055379;28;20499;-26
2022/08/23 08:13:56;;;;;;;9.48;6.10;;;22.00;99.90;;;;;;5055664;28;20037;-26
2022/08/23 08:16:26;;;;;;;10.27;5.57;;;22.20;99.90;;;;;;5054442;28;20084;-26
2022/08/23 08:18:59;;;;;;;7.28;5.05;;;22.30;99.90;;;;;;5055551;28;20041;-27
2022/08/23 08:21:26;;;;;;;7.03;5.32;;;22.50;99.90;;;;;;5055385;28;20128;-26
2022/08/23 08:23:53;;;;;;;9.13;5.55;;;22.50;99.90;;;;;;5052966;28;20049;-27
2022/08/23 08:26:19;;;;;;;8.32;4.82;;;22.80;99.90;;;;;;5065874;28;20187;-26
2022/08/23 08:28:45;;;;;;;9.38;4.20;;;22.90;99.90;;;;;;5050167;28;20072;-27
2022/08/23 08:31:12;;;;;;;18.58;6.30;;;23.00;89.60;;;;;;5053073;28;20402;-24
2022/08/23 08:33:38;;;;;;;10.85;4.80;;;22.90;99.90;;;;;;5052655;28;20045;-20
2022/08/23 08:36:06;;;;;;;8.90;5.38;;;22.40;99.90;;;;;;5055062;28;20091;-22
2022/08/23 08:38:33;;;;;;;9.23;4.85;;;22.00;1.00;;;;;;5053907;28;20051;-22
2022/08/23 08:41:24;;;;;;;18.48;6.60;;;21.50;98.60;;;;;;5055031;28;20053;-24
2022/08/23 08:44:02;;;;;;;13.88;6.88;;;20.70;1.00;;;;;;5070822;28;20137;-24
2022/08/23 08:46:51;;;;;;;12.60;6.90;;;20.50;99.90;;;;;;5054896;28;20053;-25
2022/08/23 08:49:37;;;;;;;10.05;6.40;;;20.60;99.90;;;;;;5054496;28;20053;-25
2022/08/23 08:52:38;;;;;;;13.20;6.65;;;20.60;99.90;;;;;;5055020;28;20057;-26
2022/08/23 08:55:24;;;;;;;18.58;7.57;;;21.10;1.00;;;;;;5049386;28;20403;-25
2022/08/23 08:57:51;;;;;;;17.65;8.73;;;20.20;99.90;;;;;;5055669;28;20049;-28
2022/08/23 09:00:22;;;;;;;12.05;6.32;;;21.00;99.90;;;;;;5054139;28;20123;-25
2022/08/23 09:02:48;;;;;;;22.90;7.55;;;20.60;99.90;;;;;;5055303;28;20049;-26
2022/08/23 09:05:16;;;;;;;18.52;6.38;;;20.70;99.90;;;;;;5054683;28;20127;-26
2022/08/23 09:08:03;;;;;;;14.68;5.38;;;20.80;1.00;;;;;;5054674;28;20061;-28
2022/08/23 09:11:02;;;;;;;12.52;7.22;;;21.20;1.00;;;;;;5053921;28;20086;-25
2022/08/23 09:13:36;;;;;;;10.13;5.05;;;21.90;1.00;;;;;;5055146;28;20045;-26
2022/08/23 09:16:23;;;;;;;8.13;5.07;;;22.00;99.90;;;;;;5054429;28;20418;-28
2022/08/23 09:18:50;;;;;;;8.85;5.18;;;22.80;99.90;;;;;;5054744;28;20045;-32
2022/08/23 09:21:16;;;;;;;8.05;4.30;;;22.80;99.90;;;;;;5053650;28;20045;-31
2022/08/23 09:23:45;;;;;;;15.25;4.30;;;23.00;1.00;;;;;;5054291;28;20052;-33
2022/08/23 09:26:20;;;;;;;6.93;4.68;;;23.20;1.00;;;;;;5054512;28;20045;-31
2022/08/23 09:28:54;;;;;;;10.60;4.45;;;22.80;1.00;;;;;;5053657;28;20045;-33
2022/08/23 09:31:47;;;;;;;17.33;5.38;;;22.40;1.00;;;;;;5053083;28;20044;-32
2022/08/23 09:34:19;;;;;;;14.45;5.03;;;22.70;1.00;;;;;;5053074;28;20063;-32
2022/08/23 09:36:46;;;;;;;13.85;3.70;;;22.70;1.00;;;;;;5053976;28;20045;-33
2022/08/23 09:39:36;;;;;;;11.27;4.40;;;22.70;12.50;;;;;;5054591;28;20045;-31
2022/08/23 09:42:01;;;;;;;12.43;5.05;;;22.50;37.90;;;;;;5051490;28;20425;-32
2022/08/23 09:44:40;;;;;;;17.92;5.82;;;22.30;99.90;;;;;;5054179;28;20098;-32
2022/08/23 09:47:15;;;;;;;9.68;4.50;;;22.50;99.90;;;;;;5054248;28;20053;-30
2022/08/23 09:49:44;;;;;;;10.75;4.57;;;22.50;61.20;;;;;;5052874;28;20487;-32
2022/08/23 09:52:34;;;;;;;13.70;5.18;;;22.40;99.90;;;;;;5053240;28;20082;-32
2022/08/23 09:55:05;;;;;;;7.65;3.88;;;22.60;99.90;;;;;;5030343;28;20070;-35
2022/08/23 09:57:35;;;;;;;11.63;4.45;;;22.80;1.00;;;;;;5034432;28;20049;-37
2022/08/23 10:00:16;;;;;;;12.27;4.53;;;22.90;1.00;;;;;;5033790;28;20046;-34
2022/08/23 10:02:42;;;;;;;14.27;3.72;;;23.10;30.60;;;;;;5033727;28;20049;-34
2022/08/23 10:05:14;;;;;;;10.77;3.83;;;23.10;99.90;;;;;;5053310;28;20441;-37
2022/08/23 10:07:54;;;;;;;12.90;3.67;;;23.10;99.90;;;;;;5069020;28;20057;-43
2022/08/23 10:10:45;;;;;;;9.68;3.83;;;23.30;1.00;;;;;;5050478;28;20461;-40
2022/08/23 10:13:12;;;;;;;6.85;3.50;;;23.60;1.00;;;;;;5052668;28;20049;-41
2022/08/23 10:15:57;;;;;;;11.45;4.03;;;23.70;1.00;;;;;;5041434;28;20064;-41
2022/08/23 10:19:01;;;;;;;11.52;4.30;;;24.00;1.00;;;;;;5043436;28;20135;-42
2022/08/23 10:22:00;;;;;;;12.90;4.10;;;24.10;99.90;;;;;;5051833;28;20041;-40
2022/08/23 10:24:44;;;;;;;12.52;3.63;;;24.20;99.90;;;;;;5052871;28;20053;-41
2022/08/23 10:30:18;;;;;;;12.00;3.60;;;24.20;99.90;;;;;;5054037;28;20045;-38
2022/08/23 10:32:55;;;;;;;16.58;3.45;;;24.00;30.10;;;;;;5053397;28;20048;-41
2022/08/23 10:35:30;;;;;;;17.42;4.20;;;23.60;99.90;;;;;;5052408;28;20056;-41
2022/08/23 10:38:24;;;;;;;8.05;3.20;;;23.60;99.90;;;;;;5036370;28;20395;-40
2022/08/23 10:41:23;;;;;;;6.65;2.17;;;23.80;1.00;;;;;;5052108;28;20055;-38
2022/08/23 10:44:01;;;;;;;9.77;2.30;;;23.60;99.90;;;;;;5042259;28;20094;-40
2022/08/23 10:46:29;;;;;;;10.30;2.47;;;23.00;1.00;;;;;;5066690;28;20056;-37
2022/08/23 10:49:01;;;;;;;7.45;2.53;;;22.80;99.90;;;;;;5052070;28;20514;-38
2022/08/23 10:51:36;;;;;;;9.63;2.97;;;22.90;99.90;;;;;;5052568;28;20053;-40
2022/08/23 10:54:11;;;;;;;15.85;3.38;;;23.10;1.00;;;;;;5051897;28;20130;-38
2022/08/23 10:56:37;;;;;;;10.20;3.20;;;23.30;1.00;;;;;;5056255;28;20045;-40
2022/08/23 10:59:28;;;;;;;13.63;5.32;;;23.30;99.90;;;;;;5057025;28;20485;-37
2022/08/23 11:02:13;;;;;;;12.60;4.00;;;23.40;99.90;;;;;;5054081;28;20074;-40
2022/08/23 11:05:05;;;;;;;9.57;3.10;;;23.30;99.90;;;;;;5054890;28;20045;-40
2022/08/23 11:07:41;;;;;;;8.47;2.90;;;23.40;99.90;;;;;;5055755;28;20060;-40
2022/08/23 11:10:07;;;;;;;13.43;3.03;;;23.50;1.00;;;;;;5057739;28;20049;-41
2022/08/23 11:12:48;;;;;;;9.13;2.95;;;23.80;36.90;;;;;;5056767;28;20052;-41
2022/08/23 11:15:23;;;;;;;9.80;4.80;;;23.80;99.90;;;;;;5055007;28;20502;-40
2022/08/23 11:17:48;;;;;;;7.80;2.60;;;23.60;1.00;;;;;;5056750;28;20049;-40
2022/08/23 11:20:49;;;;;;;17.67;5.22;;;23.50;99.90;;;;;;5056564;28;20048;-40
2022/08/23 11:23:41;;;;;;;7.68;2.72;;;23.70;1.00;;;;;;5057225;28;20072;-38
2022/08/23 11:26:35;;;;;;;10.15;3.45;;;23.70;99.90;;;;;;5038396;28;20124;-38
2022/08/23 11:29:09;;;;;;;6.47;3.35;;;23.70;1.00;;;;;;5039260;28;20056;-39
2022/08/23 11:31:35;;;;;;;18.58;4.18;;;23.70;99.90;;;;;;5038592;28;20426;-39
2022/08/23 11:34:26;;;;;;;11.23;3.45;;;23.80;99.90;;;;;;5072116;28;20045;-39
2022/08/23 11:37:20;;;;;;;8.80;2.53;;;23.80;85.90;;;;;;5052786;28;20053;-39
2022/08/23 11:39:58;;;;;;;25.95;4.50;;;24.00;1.00;;;;;;5054230;28;20512;-41
2022/08/23 11:42:46;;;;;;;10.40;2.67;;;24.20;1.00;;;;;;5055602;28;20041;-36
2022/08/23 11:45:26;;;;;;;16.58;3.47;;;24.00;1.00;;;;;;5055684;28;20083;-40
2022/08/23 11:48:21;;;;;;;5.55;2.13;;;24.20;99.90;;;;;;5054467;28;20048;-40
2022/08/23 11:50:50;;;;;;;10.70;2.92;;;24.20;99.90;;;;;;5055314;28;20041;-40
2022/08/23 11:53:48;;;;;;;6.18;3.08;;;24.00;1.00;;;;;;5056054;28;20095;-39
2022/08/23 11:56:41;;;;;;;7.55;2.38;;;24.00;99.90;;;;;;5056059;28;20136;-38
2022/08/23 11:59:18;;;;;;;9.23;3.22;;;24.30;1.00;;;;;;5055566;28;20103;-40
2022/08/23 12:01:45;;;;;;;9.05;2.85;;;24.30;1.00;;;;;;5054357;28;20037;-40
2022/08/23 12:04:30;;;;;;;11.27;3.78;;;24.00;1.00;;;;;;5037450;28;20049;-40
2022/08/23 12:07:02;;;;;;;5.10;2.70;;;24.20;99.90;;;;;;5054976;28;20057;-39
2022/08/23 12:09:28;;;;;;;21.20;3.47;;;24.20;1.00;;;;;;5048398;28;20046;-40
2022/08/23 12:11:56;;;;;;;16.20;3.47;;;24.10;1.00;;;;;;5042541;28;20615;-39
2022/08/23 12:14:31;;;;;;;8.30;2.97;;;23.70;1.00;;;;;;5046420;28;20045;-40
2022/08/23 12:17:24;;;;;;;11.18;3.13;;;23.20;99.90;;;;;;5040841;28;20045;-39
2022/08/23 12:20:09;;;;;;;16.33;3.20;;;22.90;99.90;;;;;;5052485;28;20447;-41
2022/08/23 12:23:14;;;;;;;12.32;3.22;;;23.40;1.00;;;;;;5058215;28;20060;-42
2022/08/23 12:25:41;;;;;;;19.77;3.60;;;24.20;99.90;;;;;;5053871;28;20568;-41
2022/08/23 12:28:26;;;;;;;16.13;3.92;;;24.60;99.90;;;;;;5034481;28;20111;-41
2022/08/23 12:30:55;;;;;;;11.43;2.75;;;24.60;99.90;;;;;;5031616;28;20073;-40
2022/08/23 12:33:33;;;;;;;10.25;2.58;;;24.30;99.90;;;;;;5055344;28;20037;-35
2022/08/23 12:36:13;;;;;;;10.40;2.40;;;23.80;1.00;;;;;;5055095;28;20044;-34
2022/08/23 12:39:16;;;;;;;8.70;2.08;;;23.40;99.90;;;;;;5070063;28;20092;-34
2022/08/23 12:42:05;;;;;;;9.85;3.15;;;23.10;99.90;;;;;;5047491;28;20132;-34
2022/08/23 12:44:31;;;;;;;4.97;2.08;;;23.00;99.90;;;;;;5054550;28;20056;-35
2022/08/23 12:47:10;;;;;;;16.85;3.38;;;23.30;99.90;;;;;;5053899;28;20048;-33
2022/08/23 12:49:36;;;;;;;6.90;2.55;;;23.60;99.90;;;;;;5054988;28;20487;-34
2022/08/23 12:52:10;;;;;;;6.88;2.58;;;23.60;99.90;;;;;;5051828;28;20041;-34
2022/08/23 12:54:46;;;;;;;6.20;2.35;;;23.10;99.90;;;;;;5047731;28;20095;-34
2022/08/23 12:57:22;;;;;;;12.00;3.35;;;22.70;1.00;;;;;;5069958;28;20044;-33
2022/08/23 12:59:54;;;;;;;6.93;2.20;;;22.40;99.90;;;;;;5069920;28;20048;-33
2022/08/23 13:02:35;;;;;;;6.38;2.40;;;22.20;99.90;;;;;;5074712;28;20063;-32
2022/08/23 13:05:12;;;;;;;7.93;2.30;;;22.20;99.90;;;;;;5051861;28;20411;-34
2022/08/23 13:07:39;;;;;;;6.70;2.55;;;22.20;99.90;;;;;;5051426;28;20140;-33
2022/08/23 13:10:08;;;;;;;5.45;2.35;;;22.30;99.90;;;;;;5044688;28;20094;-36
2022/08/23 13:12:40;;;;;;;4.85;2.20;;;22.20;99.90;;;;;;5057003;28;20090;-33
2022/08/23 13:15:08;;;;;;;6.70;2.85;;;22.20;99.90;;;;;;5046516;28;20128;-33
2022/08/23 13:17:38;;;;;;;7.47;2.10;;;22.20;99.90;;;;;;5040270;28;20053;-32